Terminal Aerodrome Forecast
Issued by NWS Shreveport, LA

Home | Current Version | Previous Version | Text Only | Print | Product List | Glossary On
Versions: 1 2 3 4 5 6 7 8 9 10 11 12 13 14 15 16 17 18
000
FTUS44 KSHV 291735
TAFSHV
TAF
KSHV 291735Z 2918/3018 16012KT P6SM SCT030 BKN120
      TEMPO 2918/2919 14014G22KT BKN025
     FM291900 17012KT P6SM VCTS BKN050CB
      TEMPO 2920/2923 2SM TSRA BR OVC020CB
     FM301000 15005KT P6SM SCT050 BKN250
     FM301200 25007KT P6SM VCTS BKN040CB=

USA.gov is the U.S. government's official web portal to all federal, state and local government web resources and services.